createdAt,value
2023-01-13T00:01:25.456Z,77.40
2023-01-13T00:03:52.474Z,77.40
2023-01-13T00:06:21.296Z,77.40
2023-01-13T00:08:50.379Z,77.40
2023-01-13T00:11:17.482Z,77.40
2023-01-13T00:13:44.085Z,77.40
2023-01-13T00:16:13.213Z,77.40
2023-01-13T00:18:40.101Z,77.40
2023-01-13T00:21:06.732Z,77.40
2023-01-13T00:23:34.365Z,77.40
2023-01-13T00:26:02.488Z,77.40
2023-01-13T00:28:33.744Z,77.40
2023-01-13T00:31:13.423Z,77.40
2023-01-13T00:33:40.031Z,77.40
2023-01-13T00:36:10.760Z,77.40
2023-01-13T00:38:39.131Z,77.40
2023-01-13T00:41:08.100Z,77.40
2023-01-13T00:43:36.001Z,77.40
2023-01-13T00:46:03.313Z,77.40
2023-01-13T00:48:30.615Z,77.40
2023-01-13T00:50:59.942Z,77.40
2023-01-13T00:53:27.028Z,77.40
2023-01-13T00:56:07.387Z,77.40
2023-01-13T00:58:34.561Z,77.40
2023-01-13T01:01:04.522Z,77.40
2023-01-13T01:03:31.321Z,77.40
2023-01-13T01:06:03.268Z,77.40
2023-01-13T01:08:29.900Z,77.40
2023-01-13T01:11:06.844Z,77.40
2023-01-13T01:13:33.672Z,77.40
2023-01-13T01:16:03.068Z,77.40
2023-01-13T01:18:29.867Z,77.40
2023-01-13T01:20:59.520Z,77.40
2023-01-13T01:23:27.674Z,77.40
2023-01-13T01:25:59.839Z,77.40
2023-01-13T01:28:26.570Z,77.40
2023-01-13T01:30:55.235Z,77.40
2023-01-13T01:33:24.472Z,77.40
2023-01-13T01:35:51.025Z,77.40
2023-01-13T01:38:17.575Z,77.40
2023-01-13T01:40:44.224Z,77.40
2023-01-13T01:43:36.075Z,77.40
2023-01-13T01:46:02.856Z,77.40
2023-01-13T01:48:34.148Z,77.40
2023-01-13T01:51:01.442Z,77.40
2023-01-13T01:53:31.955Z,77.40
2023-01-13T01:55:58.993Z,77.40
2023-01-13T01:58:30.348Z,77.40
2023-01-13T02:00:57.266Z,77.40
2023-01-13T02:03:26.517Z,77.40
2023-01-13T02:05:53.317Z,77.40
2023-01-13T02:08:22.619Z,77.40
2023-01-13T02:10:56.422Z,77.40
2023-01-13T02:13:23.007Z,77.40
2023-01-13T02:15:52.439Z,77.40
2023-01-13T02:18:21.975Z,77.40
2023-01-13T02:20:48.662Z,77.40
2023-01-13T02:23:52.638Z,77.40
2023-01-13T02:26:46.402Z,77.40
2023-01-13T02:29:39.512Z,77.40
2023-01-13T02:32:15.074Z,77.40
2023-01-13T02:34:49.836Z,77.40
2023-01-13T02:37:25.651Z,77.40
2023-01-13T02:39:57.076Z,77.40
2023-01-13T02:42:57.003Z,77.40
2023-01-13T02:45:25.677Z,77.40
2023-01-13T02:47:55.809Z,77.40
2023-01-13T02:50:24.971Z,77.40
2023-01-13T02:52:56.264Z,77.40
2023-01-13T02:55:43.349Z,77.40
2023-01-13T02:58:12.324Z,77.40
2023-01-13T03:00:39.326Z,77.40
2023-01-13T03:03:05.900Z,77.40
2023-01-13T03:05:33.109Z,77.40
2023-01-13T03:07:59.654Z,77.40
2023-01-13T03:10:35.445Z,77.40
2023-01-13T03:13:20.846Z,77.40
2023-01-13T03:16:10.355Z,77.40
2023-01-13T03:18:37.019Z,77.40
2023-01-13T03:21:15.477Z,77.40
2023-01-13T03:24:11.132Z,77.40
2023-01-13T03:26:47.926Z,77.40
2023-01-13T03:29:30.605Z,77.40
2023-01-13T03:31:59.592Z,77.40
2023-01-13T03:34:33.223Z,77.40
2023-01-13T03:37:02.377Z,77.40
2023-01-13T03:39:31.329Z,77.40
2023-01-13T03:42:00.051Z,77.40
2023-01-13T03:44:32.837Z,77.40
2023-01-13T03:47:08.561Z,77.40
2023-01-13T03:49:53.556Z,77.40
2023-01-13T03:52:27.854Z,77.40
2023-01-13T03:55:01.567Z,77.40
2023-01-13T03:57:31.109Z,77.40
2023-01-13T04:00:03.884Z,77.40
2023-01-13T04:02:43.014Z,77.40
2023-01-13T04:05:10.173Z,77.40
2023-01-13T04:07:48.762Z,77.40
2023-01-13T04:10:20.173Z,77.40
2023-01-13T04:13:01.621Z,77.40
2023-01-13T04:15:29.971Z,77.40
2023-01-13T04:18:09.395Z,77.40
2023-01-13T04:20:39.805Z,77.40
2023-01-13T04:23:07.062Z,77.40
2023-01-13T04:25:36.199Z,77.40
2023-01-13T04:28:02.863Z,77.40
2023-01-13T04:30:29.436Z,77.40
2023-01-13T04:32:56.038Z,77.40
2023-01-13T04:35:22.645Z,77.40
2023-01-13T04:37:51.689Z,77.40
2023-01-13T04:40:18.366Z,77.40
2023-01-13T04:42:48.032Z,77.40
2023-01-13T04:45:14.862Z,77.40
2023-01-13T04:47:44.067Z,77.40
2023-01-13T04:50:11.333Z,77.40
2023-01-13T04:52:38.269Z,77.40
2023-01-13T04:55:05.090Z,77.40
2023-01-13T04:57:33.234Z,77.40
2023-01-13T04:59:59.807Z,77.40
2023-01-13T05:02:26.373Z,77.40
2023-01-13T05:04:53.308Z,77.40
2023-01-13T05:07:20.048Z,77.40
2023-01-13T05:09:46.616Z,77.40
2023-01-13T05:12:31.804Z,77.40
2023-01-13T05:15:17.346Z,77.40
2023-01-13T05:17:44.085Z,77.40
2023-01-13T05:20:13.637Z,77.40
2023-01-13T05:22:58.610Z,77.40
2023-01-13T05:25:25.739Z,77.40
2023-01-13T05:27:53.762Z,77.40
2023-01-13T05:30:21.602Z,77.40
2023-01-13T05:32:48.339Z,77.40
2023-01-13T05:35:16.061Z,77.40
2023-01-13T05:37:43.537Z,77.40
2023-01-13T05:40:29.706Z,77.40
2023-01-13T05:43:23.081Z,77.40
2023-01-13T05:45:55.701Z,77.40
2023-01-13T05:48:23.406Z,77.40
2023-01-13T05:50:50.633Z,77.40
2023-01-13T05:53:17.727Z,77.40
2023-01-13T05:55:44.835Z,77.40
2023-01-13T05:58:15.689Z,77.40
2023-01-13T06:00:42.395Z,77.40
2023-01-13T06:03:09.327Z,77.40
2023-01-13T06:05:36.377Z,77.40
2023-01-13T06:08:04.612Z,77.40
2023-01-13T06:10:31.266Z,77.40
2023-01-13T06:13:00.232Z,77.40
2023-01-13T06:15:27.325Z,77.40
2023-01-13T06:17:54.847Z,77.40
2023-01-13T06:20:21.634Z,77.40
2023-01-13T06:22:49.578Z,77.40
2023-01-13T06:25:19.356Z,77.40
2023-01-13T06:27:45.932Z,77.40
2023-01-13T06:30:12.643Z,77.40
2023-01-13T06:32:44.663Z,77.40
2023-01-13T06:35:13.425Z,77.40
2023-01-13T06:37:42.369Z,77.40
2023-01-13T06:40:11.843Z,77.40
2023-01-13T06:42:57.601Z,77.40
2023-01-13T06:45:25.116Z,77.40
2023-01-13T06:47:51.919Z,77.40
2023-01-13T06:50:18.706Z,77.40
2023-01-13T06:52:45.336Z,77.40
2023-01-13T06:55:12.090Z,77.40
2023-01-13T06:57:51.899Z,77.40
2023-01-13T07:00:21.103Z,77.40
2023-01-13T07:02:48.161Z,77.40
2023-01-13T07:05:15.619Z,77.40
2023-01-13T07:07:42.281Z,77.40
2023-01-13T07:10:09.917Z,77.40
2023-01-13T07:12:59.493Z,77.40
2023-01-13T07:15:28.300Z,77.40
2023-01-13T07:17:54.902Z,77.40
2023-01-13T07:20:21.492Z,77.40
2023-01-13T07:22:53.382Z,77.40
2023-01-13T07:25:22.779Z,77.40
2023-01-13T07:27:49.301Z,77.40
2023-01-13T07:30:16.025Z,77.40
2023-01-13T07:32:42.643Z,77.40
2023-01-13T07:35:09.320Z,77.40
2023-01-13T07:37:39.323Z,77.40
2023-01-13T07:40:06.268Z,77.40
2023-01-13T07:42:51.322Z,77.40
2023-01-13T07:45:20.128Z,77.40
2023-01-13T07:47:50.521Z,77.40
2023-01-13T07:50:19.689Z,77.40
2023-01-13T07:52:46.309Z,77.40
2023-01-13T07:55:15.457Z,77.40
2023-01-13T07:57:42.045Z,77.40
2023-01-13T08:00:10.965Z,77.40
2023-01-13T08:02:41.200Z,77.40
2023-01-13T08:05:08.477Z,77.40
2023-01-13T08:07:37.856Z,77.40
2023-01-13T08:10:04.583Z,77.40
2023-01-13T08:12:53.038Z,77.40
2023-01-13T08:15:23.689Z,77.40
2023-01-13T08:17:52.762Z,77.40
2023-01-13T08:20:19.389Z,77.40
2023-01-13T08:22:48.162Z,77.40
2023-01-13T08:25:17.484Z,77.40
2023-01-13T08:27:44.125Z,77.40
2023-01-13T08:30:11.385Z,77.40
2023-01-13T08:32:43.317Z,77.40
2023-01-13T08:35:10.275Z,77.40
2023-01-13T08:37:36.919Z,77.40
2023-01-13T08:40:04.389Z,77.40
2023-01-13T08:42:31.013Z,77.40
2023-01-13T08:45:00.224Z,77.40
2023-01-13T08:47:27.322Z,77.40
2023-01-13T08:49:54.064Z,77.40
2023-01-13T08:52:23.567Z,77.40
2023-01-13T08:54:50.532Z,77.40
2023-01-13T08:57:19.392Z,77.40
2023-01-13T08:59:46.463Z,77.20
2023-01-13T09:02:17.537Z,77.30
2023-01-13T09:04:47.109Z,77.20
2023-01-13T09:07:14.055Z,77.30
2023-01-13T09:09:40.631Z,77.10
2023-01-13T09:12:26.153Z,76.90
2023-01-13T09:14:55.155Z,76.60
2023-01-13T09:17:23.266Z,76.60
2023-01-13T09:19:52.260Z,76.80
2023-01-13T09:22:21.134Z,76.20
2023-01-13T09:24:49.833Z,76.80
2023-01-13T09:27:18.953Z,76.30
2023-01-13T09:29:45.552Z,75.20
2023-01-13T09:32:12.994Z,76.20
2023-01-13T09:34:58.706Z,75.90
2023-01-13T09:37:26.191Z,75.50
2023-01-13T09:39:52.798Z,74.00
2023-01-13T09:43:01.226Z,74.70
2023-01-13T09:45:42.741Z,74.40
2023-01-13T09:48:13.356Z,73.00
2023-01-13T09:50:39.949Z,72.40
2023-01-13T09:53:12.028Z,73.40
2023-01-13T09:55:41.182Z,73.00
2023-01-13T09:58:16.814Z,73.20
2023-01-13T10:00:50.489Z,70.60
2023-01-13T10:03:22.472Z,70.20
2023-01-13T10:06:21.516Z,70.80
2023-01-13T10:08:49.135Z,70.10
2023-01-13T10:11:39.079Z,69.50
2023-01-13T10:14:19.154Z,69.40
2023-01-13T10:17:04.501Z,68.50
2023-01-13T10:19:34.718Z,69.60
2023-01-13T10:22:19.194Z,69.90
2023-01-13T10:24:51.652Z,68.90
2023-01-13T10:27:26.461Z,68.40
2023-01-13T10:29:53.338Z,71.30
2023-01-13T10:32:19.973Z,69.80
2023-01-13T10:34:50.365Z,68.10
2023-01-13T10:37:21.961Z,69.70
2023-01-13T10:39:51.137Z,68.10
2023-01-13T10:42:22.779Z,69.60
2023-01-13T10:44:53.468Z,69.10
2023-01-13T10:47:30.518Z,67.60
2023-01-13T10:49:59.972Z,69.60
2023-01-13T10:52:29.156Z,67.90
2023-01-13T10:54:56.352Z,69.20
2023-01-13T10:57:27.069Z,68.80
2023-01-13T10:59:54.972Z,68.00
2023-01-13T11:02:27.356Z,69.10
2023-01-13T11:05:00.555Z,68.10
2023-01-13T11:07:30.189Z,68.10
2023-01-13T11:10:03.029Z,68.10
2023-01-13T11:12:33.815Z,66.70
2023-01-13T11:15:02.212Z,67.80
2023-01-13T11:17:28.777Z,66.00
2023-01-13T11:19:59.925Z,67.20
2023-01-13T11:22:33.692Z,66.30
2023-01-13T11:25:01.728Z,65.80
2023-01-13T11:27:39.913Z,66.00
2023-01-13T11:30:09.972Z,64.30
2023-01-13T11:32:43.221Z,65.10
2023-01-13T11:35:15.843Z,64.40
2023-01-13T11:37:43.386Z,64.70
2023-01-13T11:40:27.702Z,64.30
2023-01-13T11:42:54.612Z,64.20
2023-01-13T11:45:30.224Z,63.60
2023-01-13T11:47:58.437Z,63.60
2023-01-13T11:50:33.852Z,64.10
2023-01-13T11:53:29.766Z,66.20
2023-01-13T11:55:56.510Z,65.00
2023-01-13T11:58:33.805Z,64.70
2023-01-13T12:01:05.284Z,64.20
2023-01-13T12:03:50.212Z,63.40
2023-01-13T12:06:34.609Z,62.40
2023-01-13T12:09:11.895Z,63.20
2023-01-13T12:12:03.815Z,63.60
2023-01-13T12:14:40.214Z,64.40
2023-01-13T12:17:12.506Z,65.20
2023-01-13T12:19:39.643Z,63.10
2023-01-13T12:22:11.517Z,63.70
2023-01-13T12:24:47.944Z,63.30
2023-01-13T12:27:26.857Z,65.30
2023-01-13T12:29:56.968Z,63.70
2023-01-13T12:32:31.010Z,65.80
2023-01-13T12:35:03.632Z,68.50
2023-01-13T12:37:52.587Z,69.30
2023-01-13T12:40:40.600Z,69.90
2023-01-13T12:43:33.445Z,69.70
2023-01-13T12:46:18.687Z,69.50
2023-01-13T12:48:49.248Z,69.80
2023-01-13T12:51:24.221Z,70.20
2023-01-13T12:53:51.247Z,69.70
2023-01-13T12:56:20.534Z,70.00
2023-01-13T12:58:49.417Z,69.70
2023-01-13T13:01:16.192Z,69.00
2023-01-13T13:04:02.801Z,68.40
2023-01-13T13:06:30.896Z,67.90
2023-01-13T13:09:05.103Z,66.50
2023-01-13T13:11:53.741Z,66.30
2023-01-13T13:14:39.255Z,66.30
2023-01-13T13:17:25.430Z,66.50
2023-01-13T13:19:52.337Z,64.70
2023-01-13T13:22:20.215Z,65.70
2023-01-13T13:24:49.882Z,65.40
2023-01-13T13:27:33.878Z,67.20
2023-01-13T13:30:04.568Z,67.20
2023-01-13T13:32:31.115Z,67.00
2023-01-13T13:35:05.611Z,69.90
2023-01-13T13:37:57.008Z,72.80
2023-01-13T13:40:42.742Z,73.20
2023-01-13T13:43:30.014Z,72.60
2023-01-13T13:46:15.292Z,72.20
2023-01-13T13:48:50.868Z,72.30
2023-01-13T13:51:31.609Z,72.30
2023-01-13T13:53:59.555Z,72.40
2023-01-13T13:56:27.285Z,72.40
2023-01-13T13:58:54.296Z,72.80
2023-01-13T14:01:32.902Z,72.30
2023-01-13T14:04:16.505Z,72.40
2023-01-13T14:06:59.802Z,72.40
2023-01-13T14:09:28.692Z,73.00
2023-01-13T14:12:02.617Z,70.90
2023-01-13T14:14:29.764Z,70.20
2023-01-13T14:16:58.718Z,68.30
2023-01-13T14:19:27.944Z,68.90
2023-01-13T14:21:54.541Z,67.60
2023-01-13T14:24:22.512Z,68.10
2023-01-13T14:26:54.873Z,69.50
2023-01-13T14:29:24.983Z,68.80
2023-01-13T14:31:55.197Z,68.50
2023-01-13T14:34:32.385Z,69.30
2023-01-13T14:37:00.579Z,68.10
2023-01-13T14:39:35.107Z,68.50
2023-01-13T14:42:02.018Z,69.20
2023-01-13T14:44:30.709Z,69.70
2023-01-13T14:47:17.917Z,70.00
2023-01-13T14:49:54.924Z,70.10
2023-01-13T14:52:23.562Z,70.80
2023-01-13T14:54:53.840Z,70.30
2023-01-13T14:57:24.468Z,70.60
2023-01-13T14:59:59.421Z,71.20
2023-01-13T15:02:34.614Z,71.50
2023-01-13T15:05:16.793Z,71.70
2023-01-13T15:07:52.480Z,71.90
2023-01-13T15:10:23.702Z,72.30
2023-01-13T15:12:54.022Z,72.60
2023-01-13T15:15:34.384Z,73.10
2023-01-13T15:18:10.547Z,73.80
2023-01-13T15:20:37.225Z,74.30
2023-01-13T15:23:03.881Z,74.40
2023-01-13T15:25:37.467Z,74.70
2023-01-13T15:28:04.861Z,74.70
2023-01-13T15:30:31.641Z,74.80
2023-01-13T15:32:58.752Z,74.80
2023-01-13T15:35:29.097Z,74.70
2023-01-13T15:37:56.998Z,74.60
2023-01-13T15:40:23.593Z,74.70
2023-01-13T15:43:08.774Z,74.90
2023-01-13T15:45:55.447Z,74.00
2023-01-13T15:48:24.175Z,74.00
2023-01-13T15:50:53.476Z,73.60
2023-01-13T15:53:22.575Z,73.20
2023-01-13T15:55:50.362Z,73.40
2023-01-13T15:58:18.348Z,73.10
2023-01-13T16:00:44.978Z,73.00
2023-01-13T16:03:15.799Z,72.80
2023-01-13T16:05:45.583Z,72.90
2023-01-13T16:08:15.756Z,72.90
2023-01-13T16:10:42.482Z,73.50
2023-01-13T16:13:09.110Z,74.10
2023-01-13T16:15:36.299Z,75.00
2023-01-13T16:18:04.093Z,77.20
2023-01-13T16:20:31.019Z,77.40
2023-01-13T16:22:59.864Z,77.40
2023-01-13T16:25:27.297Z,77.40
2023-01-13T16:27:53.901Z,77.40
2023-01-13T16:30:22.392Z,77.40
2023-01-13T16:32:49.043Z,77.40
2023-01-13T16:35:18.994Z,77.40
2023-01-13T16:37:48.366Z,77.40
2023-01-13T16:40:34.478Z,77.40
2023-01-13T16:43:03.801Z,77.40
2023-01-13T16:45:31.258Z,77.40
2023-01-13T16:47:57.877Z,77.40
2023-01-13T16:50:30.748Z,77.40
2023-01-13T16:52:57.628Z,77.40
2023-01-13T16:55:26.994Z,77.40
2023-01-13T16:57:56.178Z,77.40
2023-01-13T17:00:23.199Z,77.40
2023-01-13T17:02:49.833Z,77.40
2023-01-13T17:05:16.556Z,77.40
2023-01-13T17:07:44.455Z,77.40
2023-01-13T17:10:19.013Z,77.40
2023-01-13T17:12:45.615Z,77.40
2023-01-13T17:15:16.379Z,77.40
2023-01-13T17:17:43.952Z,77.40
2023-01-13T17:20:14.724Z,77.40
2023-01-13T17:22:42.466Z,77.40
2023-01-13T17:25:13.906Z,77.40
2023-01-13T17:27:41.652Z,77.40
2023-01-13T17:30:09.578Z,77.20
2023-01-13T17:32:36.230Z,76.90
2023-01-13T17:35:03.103Z,76.70
2023-01-13T17:37:29.724Z,76.50
2023-01-13T17:39:56.447Z,76.70
2023-01-13T17:42:25.009Z,76.50
2023-01-13T17:44:51.650Z,76.50
2023-01-13T17:47:18.255Z,76.50
2023-01-13T17:49:44.882Z,76.60
2023-01-13T17:52:11.555Z,76.60
2023-01-13T17:54:39.784Z,76.30
2023-01-13T17:57:08.535Z,76.50
2023-01-13T17:59:35.111Z,76.70
2023-01-13T18:02:04.859Z,77.00
2023-01-13T18:04:31.593Z,77.20
2023-01-13T18:06:58.291Z,77.20
2023-01-13T18:09:26.278Z,77.30
2023-01-13T18:11:53.039Z,77.30
2023-01-13T18:14:22.409Z,77.40
2023-01-13T18:16:49.316Z,77.40
2023-01-13T18:19:34.622Z,77.40
2023-01-13T18:22:19.933Z,77.40
2023-01-13T18:25:05.319Z,77.40
2023-01-13T18:27:35.600Z,77.40
2023-01-13T18:30:03.776Z,77.40
2023-01-13T18:32:33.065Z,77.40
2023-01-13T18:35:05.572Z,77.40
2023-01-13T18:37:35.704Z,77.40
2023-01-13T18:40:02.723Z,77.40
2023-01-13T18:42:50.770Z,77.40
2023-01-13T18:45:21.575Z,77.40
2023-01-13T18:47:53.464Z,77.40
2023-01-13T18:50:23.014Z,77.40
2023-01-13T18:52:49.870Z,77.40
2023-01-13T18:55:16.460Z,77.40
2023-01-13T18:57:43.061Z,77.30
2023-01-13T19:00:12.499Z,77.20
2023-01-13T19:02:39.394Z,77.30
2023-01-13T19:05:06.275Z,77.20
2023-01-13T19:07:35.455Z,77.10
2023-01-13T19:10:04.189Z,77.30
2023-01-13T19:12:31.168Z,77.40
2023-01-13T19:15:00.777Z,77.40
2023-01-13T19:17:33.520Z,77.40
2023-01-13T19:20:00.434Z,77.40
2023-01-13T19:22:30.181Z,77.40
2023-01-13T19:24:57.564Z,77.40
2023-01-13T19:27:24.846Z,77.40
2023-01-13T19:29:52.823Z,77.40
2023-01-13T19:32:20.381Z,77.40
2023-01-13T19:34:49.153Z,77.40
2023-01-13T19:37:18.217Z,77.40
2023-01-13T19:39:44.904Z,77.40
2023-01-13T19:42:30.718Z,77.40
2023-01-13T19:45:16.150Z,77.40
2023-01-13T19:47:45.224Z,77.40
2023-01-13T19:50:12.827Z,77.40
2023-01-13T19:52:39.449Z,77.40
2023-01-13T19:55:06.388Z,77.40
2023-01-13T19:57:35.130Z,77.40
2023-01-13T20:00:01.795Z,77.40
2023-01-13T20:02:28.558Z,77.40
2023-01-13T20:04:56.050Z,77.40
2023-01-13T20:07:25.601Z,77.40
2023-01-13T20:09:53.479Z,77.40
2023-01-13T20:12:21.035Z,77.40
2023-01-13T20:14:47.703Z,77.40
2023-01-13T20:17:17.911Z,77.40
2023-01-13T20:19:44.885Z,77.40
2023-01-13T20:22:11.861Z,77.40
2023-01-13T20:24:38.529Z,77.30
2023-01-13T20:27:05.383Z,77.30
2023-01-13T20:29:32.360Z,77.10
2023-01-13T20:32:01.413Z,77.30
2023-01-13T20:34:28.169Z,77.20
2023-01-13T20:36:54.774Z,77.20
2023-01-13T20:39:26.341Z,77.20
2023-01-13T20:42:11.845Z,77.10
2023-01-13T20:44:38.516Z,77.30
2023-01-13T20:47:05.194Z,77.00
2023-01-13T20:49:35.113Z,77.20
2023-01-13T20:52:03.403Z,77.20
2023-01-13T20:54:32.485Z,77.30
2023-01-13T20:57:00.399Z,77.30
2023-01-13T20:59:26.949Z,77.40
2023-01-13T21:01:53.509Z,77.40
2023-01-13T21:04:20.082Z,77.40
2023-01-13T21:06:49.281Z,77.40
2023-01-13T21:09:15.821Z,77.40
2023-01-13T21:12:01.264Z,77.40
2023-01-13T21:14:46.371Z,77.40
2023-01-13T21:17:32.900Z,77.40
2023-01-13T21:19:59.548Z,77.40
2023-01-13T21:22:26.212Z,77.40
2023-01-13T21:24:54.986Z,77.40
2023-01-13T21:27:23.746Z,77.40
2023-01-13T21:29:50.273Z,77.40
2023-01-13T21:32:16.863Z,77.40
2023-01-13T21:34:45.599Z,77.40
2023-01-13T21:37:12.183Z,77.40
2023-01-13T21:39:40.892Z,77.40
2023-01-13T21:42:26.230Z,77.40
2023-01-13T21:45:11.706Z,77.40
2023-01-13T21:47:50.796Z,77.40
2023-01-13T21:50:19.884Z,77.40
2023-01-13T21:52:49.362Z,77.40
2023-01-13T21:55:28.126Z,77.40
2023-01-13T21:58:01.326Z,77.40
2023-01-13T22:00:29.271Z,77.40
2023-01-13T22:02:56.085Z,77.40
2023-01-13T22:05:24.213Z,77.40
2023-01-13T22:07:51.248Z,77.40
2023-01-13T22:10:19.274Z,77.40
2023-01-13T22:12:47.266Z,77.40
2023-01-13T22:15:15.242Z,77.40
2023-01-13T22:17:45.617Z,77.40
2023-01-13T22:20:13.130Z,77.40
2023-01-13T22:22:42.172Z,77.40
2023-01-13T22:25:10.867Z,77.40
2023-01-13T22:27:42.381Z,77.40
2023-01-13T22:30:12.429Z,77.40
2023-01-13T22:32:39.177Z,77.40
2023-01-13T22:35:08.704Z,77.40
2023-01-13T22:37:35.800Z,77.40
2023-01-13T22:40:05.824Z,77.40
2023-01-13T22:42:37.210Z,77.40
2023-01-13T22:45:06.673Z,77.40
2023-01-13T22:47:36.002Z,77.40
2023-01-13T22:50:04.959Z,77.40
2023-01-13T22:52:32.889Z,77.40
2023-01-13T22:55:01.882Z,77.40
2023-01-13T22:57:47.853Z,77.40
2023-01-13T23:00:15.430Z,77.40
2023-01-13T23:02:42.060Z,77.40
2023-01-13T23:05:08.827Z,77.40
2023-01-13T23:07:36.040Z,77.40
2023-01-13T23:10:03.010Z,77.40
2023-01-13T23:12:29.604Z,77.40
2023-01-13T23:14:58.560Z,77.40
2023-01-13T23:17:25.118Z,77.40
2023-01-13T23:19:54.112Z,77.40
2023-01-13T23:22:23.118Z,77.40
2023-01-13T23:24:49.739Z,77.40
2023-01-13T23:27:18.760Z,77.40
2023-01-13T23:29:48.969Z,77.40
2023-01-13T23:32:15.536Z,77.40
2023-01-13T23:34:44.549Z,77.40
2023-01-13T23:37:11.107Z,77.40
2023-01-13T23:39:39.980Z,77.40
2023-01-13T23:42:06.520Z,77.40
2023-01-13T23:44:35.297Z,77.40
2023-01-13T23:47:01.922Z,77.30
2023-01-13T23:49:28.457Z,77.40
2023-01-13T23:52:02.480Z,77.40
2023-01-13T23:54:29.081Z,77.40
2023-01-13T23:56:59.825Z,77.40
2023-01-13T23:59:26.693Z,77.40
